Aeroporto :
LOGIN :

Iscrizione | Disclaimer

   EN    FR    IT 

 










Sommario :    VFR   VFR Marginale   IFR   IFR Intensivo   IFR Molto Intensivo
Visibilità : 
Base nubi : 
>= 8 km
>= 3000ft
5 / 8 km
1000 / 3000 ft
1500m / 5 km
500 / 1000 ft
800 / 1500m
200 / 500 ft
< 800m
< 200 ft
Simboli :   Temporali  Nebbia  Neve Forte  Precipitazioni Forti  Vento > 20 kt
SIGMETs :   Varie  Temporali  Ghiacco  Turbolenza  Onda orograficha  Ceneri Vulcaniche






- Altitudine del aeroporto : 392 ft
- Codice IATA : CDG


LFPG - Paris-Aeroport Charles De Gaulle

ULTIMO METAR :
  • 281330Z 25016KT 9999 FEW033 SCT260 06/02 Q1005 TEMPO 27020G30KT SCT020TCU

METARs OBSOLETI :
  • 281300Z 25015KT 9999 FEW013CB SCT053 04/02 Q1004 TEMPO 27020G30KT 3000 SHRA SCT020TCU
  • 281230Z 27017KT 9999 -SHRA FEW016 SCT033 02/01 Q1004 TEMPO 27020G30KT 3000 SHRA SCT020TCU
  • 281200Z 29022G37KT 1000 R27L/P2000 R09R/1800D R26R/P2000 R08L/P2000 R26L/P2000 R08R/P2000 R27R/P2000 R09L/2000D -SN BR SCT006 FEW023CB BKN028 03/M01 Q1005 TEMPO 27025G40KT 2000 TSRAGS SCT015CB
  • 281136Z 26023KT 9999 VCSH FEW023CB BKN026 06/00 Q1004 TEMPO 27025G40KT 2000 TSRAGS SCT015CB
  • 281100Z 26020KT 9999 SCT024 06/01 Q1003 TEMPO 27020G40KT

TAF AMD TAF LFPG
Valido dal 28 a 12 ore il 29 a 18 ore UTC


281159Z 2812/2918 27020G30KT 9999 SCT025 TX09/2914Z TN02/2812Z
TEMPO 2812/2821 3000 SHRA SCT020TCU
TEMPO 2812/2813 30025G40KT 0800 TSGSSN BKN018CB
PROB40
TEMPO 2814/2819 28025G40KT 2000 TSRAGS BKN018CB
BECMG 2823/2901 25012KT
TEMPO 2901/2913 25015G25KT
PROB40
TEMPO 2903/2907 BKN012
PROB30
TEMPO 2910/2915 -SHRA SCT020TCU
ATIS : +33 1 48 62 10 92



MetMap, La meteo Aeronautica in un colpo d'occhio ! - Copyright ORBIFLY Dicembre 2007 - Disclaimer

ORBIFLY MET'MAP TEAM :

Programmazione e sviluppo : Alexandra Zaïnal
Concezione : Baudouin d'Aumeries
Aiuto per la programmazione : Marc-Olivier Méhu
Supporto tecnico e logistico : Manuel Goepfert
Aiuto per la traduzione : Arnaldo La Scala

Contatto : metmap@orbifly.com




FONTI E CREDITI :

   NOAA